Time;durP1;ratioP1;P1;durP2;ratioP2;P2;SDS_P1;SDS_P2;PMS_P1;PMS_P2;Temp;Humidity;BMP_temperature;BMP_pressure;BME280_temperature;BME280_humidity;BME280_pressure;Samples;Min_cycle;Max_cycle;Signal;HPM_P1;HPM_P2
2023/05/27 00:01:05;;;;;;;13.93;4.63;;;;;;;;;;5014170;28;20515;-45
2023/05/27 00:03:31;;;;;;;12.73;4.80;;;;;;;;;;5013920;28;20434;-46
2023/05/27 00:05:56;;;;;;;17.33;4.50;;;;;;;;;;5014133;28;20497;-45
2023/05/27 00:08:22;;;;;;;16.10;5.10;;;;;;;;;;5014128;28;20415;-45
2023/05/27 00:10:48;;;;;;;14.20;5.53;;;;;;;;;;5013885;28;20447;-47
2023/05/27 00:13:14;;;;;;;11.43;4.70;;;;;;;;;;5013117;28;20427;-46
2023/05/27 00:15:41;;;;;;;9.03;4.70;;;;;;;;;;5012954;28;20451;-45
2023/05/27 00:18:08;;;;;;;10.63;5.07;;;;;;;;;;5013150;28;20428;-47
2023/05/27 00:20:34;;;;;;;13.20;5.07;;;;;;;;;;5013922;28;20498;-45
2023/05/27 00:23:00;;;;;;;15.97;5.27;;;;;;;;;;5013405;28;20522;-45
2023/05/27 00:25:26;;;;;;;14.30;5.30;;;;;;;;;;5013516;28;20418;-45
2023/05/27 00:27:54;;;;;;;18.23;5.10;;;;;;;;;;5013721;28;20514;-45
2023/05/27 00:30:20;;;;;;;14.13;4.67;;;;;;;;;;5013770;28;20514;-46
2023/05/27 00:32:47;;;;;;;15.23;5.03;;;;;;;;;;5013992;28;20557;-45
2023/05/27 00:35:13;;;;;;;10.70;4.80;;;;;;;;;;5013669;28;20425;-45
2023/05/27 00:37:39;;;;;;;12.40;4.83;;;;;;;;;;5013432;28;20439;-46
2023/05/27 00:40:07;;;;;;;15.27;5.53;;;;;;;;;;5013744;28;20813;-46
2023/05/27 00:42:32;;;;;;;11.97;5.30;;;;;;;;;;5013136;28;20439;-45
2023/05/27 00:44:58;;;;;;;14.70;5.27;;;;;;;;;;5012136;28;20493;-45
2023/05/27 00:47:27;;;;;;;15.90;5.30;;;;;;;;;;5013339;28;20442;-45
2023/05/27 00:49:53;;;;;;;22.27;5.33;;;;;;;;;;5013289;28;20411;-45
2023/05/27 00:52:19;;;;;;;17.63;5.37;;;;;;;;;;5012905;28;20465;-45
2023/05/27 00:54:45;;;;;;;15.93;4.80;;;;;;;;;;5013223;28;20423;-45
2023/05/27 00:57:11;;;;;;;21.67;5.43;;;;;;;;;;5013069;28;20491;-46
2023/05/27 00:59:37;;;;;;;10.73;5.60;;;;;;;;;;5012294;28;20506;-45
2023/05/27 01:02:03;;;;;;;13.73;5.30;;;;;;;;;;5018267;28;20431;-47
2023/05/27 01:04:29;;;;;;;28.13;6.40;;;;;;;;;;5012169;28;20439;-45
2023/05/27 01:06:55;;;;;;;12.27;5.33;;;;;;;;;;5018724;28;20537;-45
2023/05/27 01:09:21;;;;;;;14.67;4.53;;;;;;;;;;5012880;28;20412;-45
2023/05/27 01:11:51;;;;;;;14.90;5.37;;;;;;;;;;5012008;28;20455;-45
2023/05/27 01:14:18;;;;;;;7.90;4.90;;;;;;;;;;5010749;28;20435;-45
2023/05/27 01:16:45;;;;;;;18.27;5.23;;;;;;;;;;5012933;28;20411;-45
2023/05/27 01:19:16;;;;;;;12.50;5.20;;;;;;;;;;5005523;28;20777;-45
2023/05/27 01:21:44;;;;;;;14.80;4.60;;;;;;;;;;5012828;28;20421;-44
2023/05/27 01:24:10;;;;;;;15.90;5.10;;;;;;;;;;5004251;28;20435;-45
2023/05/27 01:26:36;;;;;;;14.50;5.73;;;;;;;;;;5012723;28;20926;-45
2023/05/27 01:29:03;;;;;;;12.27;4.70;;;;;;;;;;5012621;28;20442;-45
2023/05/27 01:31:35;;;;;;;17.60;5.83;;;;;;;;;;5012683;28;21006;-45
2023/05/27 01:34:06;;;;;;;14.43;4.80;;;;;;;;;;5012201;28;20950;-46
2023/05/27 01:36:35;;;;;;;14.73;4.80;;;;;;;;;;5012021;28;20407;-45
2023/05/27 01:39:02;;;;;;;11.13;5.03;;;;;;;;;;5016151;28;20941;-46
2023/05/27 01:41:28;;;;;;;13.40;5.60;;;;;;;;;;5012554;28;20486;-44
2023/05/27 01:43:54;;;;;;;15.73;5.40;;;;;;;;;;5011883;28;20497;-45
2023/05/27 01:46:20;;;;;;;8.30;5.03;;;;;;;;;;5011377;28;20811;-45
2023/05/27 01:48:46;;;;;;;16.27;5.13;;;;;;;;;;5011582;28;20446;-46
2023/05/27 01:51:12;;;;;;;19.20;5.40;;;;;;;;;;5012213;28;20455;-45
2023/05/27 01:53:38;;;;;;;11.17;5.70;;;;;;;;;;5012034;28;20424;-46
2023/05/27 01:56:04;;;;;;;14.10;5.40;;;;;;;;;;5012069;28;20423;-47
2023/05/27 01:58:30;;;;;;;14.13;5.73;;;;;;;;;;5012248;28;20449;-46
2023/05/27 02:00:56;;;;;;;17.87;5.47;;;;;;;;;;5012001;28;20490;-45
2023/05/27 02:03:22;;;;;;;16.23;5.30;;;;;;;;;;5012041;28;20432;-45
2023/05/27 02:05:48;;;;;;;11.17;5.07;;;;;;;;;;5012027;28;20410;-44
2023/05/27 02:08:14;;;;;;;17.07;5.53;;;;;;;;;;5012028;28;20477;-44
2023/05/27 02:10:40;;;;;;;11.03;4.80;;;;;;;;;;5012012;28;20399;-45
2023/05/27 02:13:06;;;;;;;10.57;5.23;;;;;;;;;;5011761;28;20427;-44
2023/05/27 02:15:32;;;;;;;9.30;5.27;;;;;;;;;;5010826;28;20405;-46
2023/05/27 02:17:58;;;;;;;16.33;5.40;;;;;;;;;;5011868;28;20412;-46
2023/05/27 02:20:24;;;;;;;14.20;5.50;;;;;;;;;;5011135;28;20510;-45
2023/05/27 02:22:50;;;;;;;16.10;5.00;;;;;;;;;;5011491;28;20441;-47
2023/05/27 02:25:16;;;;;;;17.20;6.40;;;;;;;;;;5011935;28;20439;-46
2023/05/27 02:27:46;;;;;;;14.93;5.87;;;;;;;;;;5011753;28;20451;-46
2023/05/27 02:30:13;;;;;;;9.27;5.10;;;;;;;;;;5004182;28;20497;-46
2023/05/27 02:32:39;;;;;;;15.43;5.10;;;;;;;;;;5011439;28;20489;-45
2023/05/27 02:35:05;;;;;;;12.90;5.10;;;;;;;;;;5011779;28;20915;-46
2023/05/27 02:37:31;;;;;;;12.57;5.50;;;;;;;;;;5013444;28;20418;-46
2023/05/27 02:39:57;;;;;;;9.83;5.47;;;;;;;;;;5013465;28;20403;-44
2023/05/27 02:42:23;;;;;;;21.20;6.20;;;;;;;;;;5011358;28;20407;-45
2023/05/27 02:44:49;;;;;;;15.07;6.13;;;;;;;;;;5011560;28;20430;-45
2023/05/27 02:47:15;;;;;;;15.97;5.90;;;;;;;;;;5010488;28;20497;-45
2023/05/27 02:49:41;;;;;;;12.70;5.27;;;;;;;;;;5014728;28;20462;-46
2023/05/27 02:52:07;;;;;;;12.73;5.97;;;;;;;;;;5015386;28;20465;-46
2023/05/27 02:54:32;;;;;;;13.33;5.13;;;;;;;;;;5015404;28;20411;-45
2023/05/27 02:56:58;;;;;;;10.90;5.20;;;;;;;;;;5015333;28;20414;-46
2023/05/27 02:59:24;;;;;;;15.77;5.80;;;;;;;;;;5015499;28;20419;-44
2023/05/27 03:01:50;;;;;;;12.60;5.70;;;;;;;;;;5015330;28;20506;-44
2023/05/27 03:04:16;;;;;;;10.90;5.20;;;;;;;;;;5015088;28;20987;-45
2023/05/27 03:06:42;;;;;;;13.70;5.17;;;;;;;;;;5015279;28;20752;-45
2023/05/27 03:09:08;;;;;;;14.43;6.27;;;;;;;;;;5015147;28;20791;-45
2023/05/27 03:11:34;;;;;;;14.50;6.20;;;;;;;;;;5015237;28;20461;-44
2023/05/27 03:14:00;;;;;;;14.00;6.07;;;;;;;;;;5011072;28;20965;-44
2023/05/27 03:16:26;;;;;;;14.10;5.73;;;;;;;;;;5013980;28;20820;-46
2023/05/27 03:18:52;;;;;;;13.43;5.80;;;;;;;;;;5014667;28;20762;-47
2023/05/27 03:21:18;;;;;;;12.10;5.30;;;;;;;;;;5021025;28;20440;-45
2023/05/27 03:23:44;;;;;;;11.60;6.47;;;;;;;;;;5013999;28;20424;-46
2023/05/27 03:26:10;;;;;;;17.07;5.97;;;;;;;;;;5014889;28;20919;-45
2023/05/27 03:28:36;;;;;;;12.53;6.00;;;;;;;;;;5014488;28;20476;-45
2023/05/27 03:31:03;;;;;;;10.90;5.80;;;;;;;;;;5014349;28;20969;-44
2023/05/27 03:33:29;;;;;;;9.30;5.87;;;;;;;;;;5014920;28;20823;-45
2023/05/27 03:35:55;;;;;;;15.90;6.67;;;;;;;;;;5014700;28;20416;-45
2023/05/27 03:38:21;;;;;;;20.03;6.67;;;;;;;;;;5018209;28;20550;-46
2023/05/27 03:40:47;;;;;;;9.23;5.33;;;;;;;;;;5014640;28;20493;-45
2023/05/27 03:43:13;;;;;;;7.17;5.33;;;;;;;;;;5014246;28;20433;-44
2023/05/27 03:45:39;;;;;;;13.97;5.90;;;;;;;;;;5013372;28;20453;-45
2023/05/27 03:48:05;;;;;;;11.87;7.57;;;;;;;;;;5013840;28;20510;-44
2023/05/27 03:50:33;;;;;;;11.33;6.00;;;;;;;;;;5014390;28;20926;-45
2023/05/27 03:52:59;;;;;;;14.87;6.30;;;;;;;;;;5014231;28;20562;-45
2023/05/27 03:55:26;;;;;;;13.90;6.50;;;;;;;;;;5014349;28;20442;-47
2023/05/27 03:57:52;;;;;;;12.50;5.83;;;;;;;;;;5014240;28;20414;-44
2023/05/27 04:00:18;;;;;;;15.33;7.17;;;;;;;;;;5013747;28;20410;-45
2023/05/27 04:02:44;;;;;;;18.40;7.40;;;;;;;;;;5014091;28;20826;-45
2023/05/27 04:05:10;;;;;;;13.70;6.70;;;;;;;;;;5014131;28;20464;-45
2023/05/27 04:07:36;;;;;;;18.30;6.67;;;;;;;;;;5014141;28;20420;-46
2023/05/27 04:10:02;;;;;;;11.77;7.63;;;;;;;;;;5014357;28;20502;-45
2023/05/27 04:12:28;;;;;;;16.50;4.97;;;;;;;;;;5013792;28;20470;-45
2023/05/27 04:14:56;;;;;;;18.53;6.23;;;;;;;;;;5013956;28;20422;-46
2023/05/27 04:17:22;;;;;;;12.57;5.90;;;;;;;;;;5012882;28;20440;-45
2023/05/27 04:19:48;;;;;;;12.07;7.03;;;;;;;;;;5013232;28;20423;-45
2023/05/27 04:22:14;;;;;;;13.87;6.57;;;;;;;;;;5013598;28;20403;-44
2023/05/27 04:24:43;;;;;;;15.83;7.17;;;;;;;;;;5013861;28;20497;-44
2023/05/27 04:27:09;;;;;;;16.80;6.20;;;;;;;;;;5013690;28;20524;-45
2023/05/27 04:29:35;;;;;;;14.43;6.47;;;;;;;;;;5014747;28;20415;-46
2023/05/27 04:32:01;;;;;;;10.93;6.57;;;;;;;;;;5015047;28;20462;-46
2023/05/27 04:34:27;;;;;;;12.77;6.10;;;;;;;;;;5015124;28;20438;-48
2023/05/27 04:36:54;;;;;;;12.37;6.13;;;;;;;;;;5015089;28;20902;-46
2023/05/27 04:39:20;;;;;;;20.27;6.07;;;;;;;;;;5018704;28;20400;-47
2023/05/27 04:41:46;;;;;;;13.73;6.20;;;;;;;;;;5014932;28;20813;-47
2023/05/27 04:44:12;;;;;;;13.43;6.97;;;;;;;;;;5014989;28;20523;-46
2023/05/27 04:46:43;;;;;;;17.00;5.77;;;;;;;;;;5012706;28;20427;-46
2023/05/27 04:49:09;;;;;;;22.33;7.30;;;;;;;;;;5015018;28;20465;-46
2023/05/27 04:51:35;;;;;;;18.80;7.00;;;;;;;;;;5015063;28;20462;-47
2023/05/27 04:54:01;;;;;;;20.23;7.60;;;;;;;;;;5014970;28;20462;-45
2023/05/27 04:56:28;;;;;;;20.27;6.60;;;;;;;;;;5014606;28;20399;-46
2023/05/27 04:58:55;;;;;;;12.73;6.00;;;;;;;;;;5015072;28;20411;-47
2023/05/27 05:01:22;;;;;;;16.60;6.60;;;;;;;;;;5013900;28;20427;-46
2023/05/27 05:06:32;;;;;;;15.97;7.03;;;;;;;;;;5015050;28;20409;-47
2023/05/27 05:08:58;;;;;;;15.80;6.50;;;;;;;;;;5014812;28;20411;-46
2023/05/27 05:11:25;;;;;;;19.80;6.77;;;;;;;;;;5013344;28;20505;-46
2023/05/27 05:13:51;;;;;;;14.93;6.40;;;;;;;;;;5013468;28;20430;-46
2023/05/27 05:16:17;;;;;;;12.43;6.50;;;;;;;;;;5011547;28;20426;-46
2023/05/27 05:18:42;;;;;;;14.20;6.40;;;;;;;;;;5013848;28;20436;-47
2023/05/27 05:21:08;;;;;;;16.63;6.90;;;;;;;;;;5014093;28;20891;-46
2023/05/27 05:23:34;;;;;;;24.40;7.73;;;;;;;;;;5013596;28;21017;-47
2023/05/27 05:26:06;;;;;;;18.37;6.73;;;;;;;;;;5014058;28;20929;-46
2023/05/27 05:28:32;;;;;;;11.73;7.07;;;;;;;;;;5013662;28;20411;-47
2023/05/27 05:30:58;;;;;;;14.60;6.80;;;;;;;;;;5013484;28;20782;-48
2023/05/27 05:33:24;;;;;;;15.90;7.03;;;;;;;;;;5014390;28;20442;-47
2023/05/27 05:35:50;;;;;;;15.83;6.83;;;;;;;;;;5015724;28;20496;-46
2023/05/27 05:38:16;;;;;;;12.03;7.07;;;;;;;;;;5019026;28;20403;-46
2023/05/27 05:40:48;;;;;;;13.57;7.80;;;;;;;;;;5013751;28;20415;-47
2023/05/27 05:43:14;;;;;;;18.73;8.30;;;;;;;;;;5011278;28;20442;-47
2023/05/27 05:45:40;;;;;;;17.70;7.50;;;;;;;;;;5010408;28;20441;-47
2023/05/27 05:48:06;;;;;;;21.77;7.43;;;;;;;;;;5011775;28;20424;-47
2023/05/27 05:50:32;;;;;;;12.70;6.60;;;;;;;;;;5011837;28;20419;-46
2023/05/27 05:52:58;;;;;;;15.97;6.27;;;;;;;;;;5011858;28;20467;-46
2023/05/27 05:55:24;;;;;;;13.07;6.50;;;;;;;;;;5010882;28;20437;-46
2023/05/27 05:57:50;;;;;;;20.50;7.93;;;;;;;;;;5012049;28;20962;-46
2023/05/27 06:00:16;;;;;;;19.50;7.13;;;;;;;;;;5011877;28;20470;-47
2023/05/27 06:02:42;;;;;;;13.87;6.50;;;;;;;;;;5011794;28;20470;-46
2023/05/27 06:05:08;;;;;;;18.33;6.03;;;;;;;;;;5011671;28;20465;-47
2023/05/27 06:07:34;;;;;;;19.90;7.93;;;;;;;;;;5010853;28;20432;-48
2023/05/27 06:10:00;;;;;;;17.87;7.43;;;;;;;;;;5010259;28;20452;-48
2023/05/27 06:12:26;;;;;;;15.40;7.33;;;;;;;;;;5009375;28;20476;-47
2023/05/27 06:14:52;;;;;;;18.53;8.47;;;;;;;;;;5011419;28;20428;-46
2023/05/27 06:17:18;;;;;;;14.17;6.43;;;;;;;;;;5009162;28;20428;-47
2023/05/27 06:19:44;;;;;;;15.57;7.50;;;;;;;;;;5011897;28;20424;-48
2023/05/27 06:22:10;;;;;;;16.57;7.70;;;;;;;;;;5011021;28;20424;-48
2023/05/27 06:24:36;;;;;;;18.20;7.53;;;;;;;;;;5010181;28;20802;-46
2023/05/27 06:27:02;;;;;;;20.23;6.83;;;;;;;;;;5010230;28;20430;-47
2023/05/27 06:29:28;;;;;;;15.40;6.53;;;;;;;;;;5011362;28;20419;-47
2023/05/27 06:31:54;;;;;;;17.00;7.23;;;;;;;;;;5009550;28;20481;-48
2023/05/27 06:34:20;;;;;;;11.87;6.50;;;;;;;;;;5004676;28;20903;-46
2023/05/27 06:36:48;;;;;;;15.50;6.13;;;;;;;;;;5011840;28;20455;-47
2023/05/27 06:39:14;;;;;;;12.90;7.40;;;;;;;;;;5012056;28;20421;-47
2023/05/27 06:41:41;;;;;;;10.93;7.67;;;;;;;;;;5011818;28;20473;-47
2023/05/27 06:44:07;;;;;;;14.93;7.17;;;;;;;;;;5011148;28;20441;-46
2023/05/27 06:46:33;;;;;;;24.30;7.00;;;;;;;;;;5010383;28;20906;-47
2023/05/27 06:48:59;;;;;;;16.40;7.10;;;;;;;;;;5011164;28;20441;-48
2023/05/27 06:51:26;;;;;;;17.97;7.53;;;;;;;;;;5011630;28;20825;-48
2023/05/27 06:53:52;;;;;;;14.07;6.30;;;;;;;;;;5011189;28;20429;-48
2023/05/27 06:56:19;;;;;;;14.47;6.50;;;;;;;;;;5012089;28;20413;-47
2023/05/27 06:58:45;;;;;;;14.27;7.13;;;;;;;;;;5010586;28;20430;-46
2023/05/27 07:01:11;;;;;;;10.27;7.33;;;;;;;;;;5011893;28;20427;-47
2023/05/27 07:03:37;;;;;;;14.70;6.43;;;;;;;;;;5011165;28;20446;-49
2023/05/27 07:06:03;;;;;;;16.30;6.70;;;;;;;;;;5011545;28;20514;-48
2023/05/27 07:08:29;;;;;;;13.43;7.00;;;;;;;;;;5011548;28;20510;-47
2023/05/27 07:10:55;;;;;;;13.07;6.37;;;;;;;;;;5011289;28;20414;-46
2023/05/27 07:13:21;;;;;;;15.63;6.50;;;;;;;;;;5011409;28;21129;-47
2023/05/27 07:15:47;;;;;;;20.23;7.97;;;;;;;;;;5010648;28;20438;-47
2023/05/27 07:18:13;;;;;;;14.53;7.07;;;;;;;;;;5011413;28;20970;-47
2023/05/27 07:20:39;;;;;;;15.07;7.00;;;;;;;;;;5011311;28;20426;-49
2023/05/27 07:23:05;;;;;;;13.53;6.77;;;;;;;;;;5010952;28;20441;-47
2023/05/27 07:25:31;;;;;;;12.50;6.97;;;;;;;;;;5011518;28;20937;-47
2023/05/27 07:27:57;;;;;;;21.67;6.77;;;;;;;;;;5019207;28;20427;-49
2023/05/27 07:30:23;;;;;;;10.50;6.83;;;;;;;;;;5011155;28;20418;-47
2023/05/27 07:32:50;;;;;;;12.50;6.30;;;;;;;;;;5011231;28;20511;-48
2023/05/27 07:35:16;;;;;;;13.37;6.63;;;;;;;;;;5013954;28;20463;-48
2023/05/27 07:37:42;;;;;;;18.10;6.73;;;;;;;;;;5018319;28;20548;-47
2023/05/27 07:40:08;;;;;;;17.57;7.67;;;;;;;;;;5015191;28;20434;-48
2023/05/27 07:42:34;;;;;;;19.03;7.20;;;;;;;;;;5014448;28;20412;-47
2023/05/27 07:45:00;;;;;;;18.13;7.63;;;;;;;;;;5013809;28;20790;-46
2023/05/27 07:47:26;;;;;;;15.73;6.97;;;;;;;;;;5015658;28;20390;-48
2023/05/27 07:49:52;;;;;;;14.47;6.23;;;;;;;;;;5015056;28;20393;-48
2023/05/27 07:52:18;;;;;;;13.10;6.50;;;;;;;;;;5015344;28;20888;-47
2023/05/27 07:54:44;;;;;;;14.03;7.17;;;;;;;;;;5016059;28;20403;-47
2023/05/27 07:57:09;;;;;;;17.63;7.03;;;;;;;;;;5009981;28;20770;-47
2023/05/27 07:59:35;;;;;;;16.77;6.30;;;;;;;;;;5015672;28;20384;-49
2023/05/27 08:02:01;;;;;;;11.60;6.10;;;;;;;;;;5015449;28;20425;-45
2023/05/27 08:04:27;;;;;;;23.33;7.27;;;;;;;;;;5009018;28;20420;-47
2023/05/27 08:06:53;;;;;;;18.33;6.77;;;;;;;;;;5014281;28;20388;-47
2023/05/27 08:09:19;;;;;;;12.30;5.93;;;;;;;;;;5014742;28;20509;-47
2023/05/27 08:11:45;;;;;;;13.10;7.17;;;;;;;;;;5014265;28;20498;-47
2023/05/27 08:14:12;;;;;;;15.57;6.63;;;;;;;;;;5014189;28;20397;-48
2023/05/27 08:16:39;;;;;;;20.03;6.10;;;;;;;;;;5013222;28;20441;-47
2023/05/27 08:19:05;;;;;;;15.00;6.27;;;;;;;;;;5013524;28;20470;-48
2023/05/27 08:21:31;;;;;;;13.10;6.10;;;;;;;;;;5013025;28;20385;-49
2023/05/27 08:23:57;;;;;;;11.13;5.60;;;;;;;;;;5012918;28;20432;-49
2023/05/27 08:26:23;;;;;;;14.93;6.27;;;;;;;;;;5013230;28;20829;-47
2023/05/27 08:28:49;;;;;;;19.17;6.30;;;;;;;;;;5013698;28;20413;-47
2023/05/27 08:31:15;;;;;;;16.10;5.87;;;;;;;;;;5013594;28;20459;-47
2023/05/27 08:33:41;;;;;;;13.47;6.20;;;;;;;;;;5013669;28;20433;-48
2023/05/27 08:36:07;;;;;;;21.40;7.73;;;;;;;;;;5013737;28;20889;-49
2023/05/27 08:38:33;;;;;;;17.80;6.10;;;;;;;;;;5015128;28;20417;-47
2023/05/27 08:40:59;;;;;;;9.37;6.13;;;;;;;;;;5014010;28;20414;-49
2023/05/27 08:43:25;;;;;;;16.40;6.10;;;;;;;;;;5013303;28;20509;-48
2023/05/27 08:45:51;;;;;;;10.13;5.70;;;;;;;;;;5012552;28;20491;-48
2023/05/27 08:48:17;;;;;;;11.97;5.83;;;;;;;;;;5006297;28;20905;-48
2023/05/27 08:50:44;;;;;;;19.23;6.73;;;;;;;;;;5013634;28;20476;-47
2023/05/27 08:53:11;;;;;;;14.87;5.57;;;;;;;;;;5007735;28;20474;-47
2023/05/27 08:55:38;;;;;;;12.60;5.53;;;;;;;;;;5013049;28;20419;-47
2023/05/27 08:58:06;;;;;;;11.80;6.10;;;;;;;;;;5013285;28;20906;-48
2023/05/27 09:00:32;;;;;;;12.30;5.90;;;;;;;;;;5013456;28;20426;-47
2023/05/27 09:02:59;;;;;;;10.80;5.57;;;;;;;;;;5012830;28;20423;-48
2023/05/27 09:05:26;;;;;;;10.23;5.90;;;;;;;;;;5013357;28;20938;-48
2023/05/27 09:07:52;;;;;;;12.37;6.00;;;;;;;;;;5012963;28;20426;-48
2023/05/27 09:10:18;;;;;;;11.80;5.77;;;;;;;;;;5013434;28;20783;-47
2023/05/27 09:12:44;;;;;;;9.23;4.57;;;;;;;;;;5012678;28;20532;-48
2023/05/27 09:15:11;;;;;;;14.60;4.87;;;;;;;;;;5012304;28;20414;-47
2023/05/27 09:17:41;;;;;;;12.27;5.10;;;;;;;;;;5013168;28;20411;-48
2023/05/27 09:20:07;;;;;;;12.23;4.70;;;;;;;;;;5012274;28;20438;-47
2023/05/27 09:22:34;;;;;;;13.20;5.30;;;;;;;;;;5012713;28;20423;-48
2023/05/27 09:25:00;;;;;;;14.60;5.80;;;;;;;;;;5013018;28;20490;-48
2023/05/27 09:27:26;;;;;;;11.10;4.63;;;;;;;;;;5013036;28;20469;-47
2023/05/27 09:29:52;;;;;;;11.70;4.67;;;;;;;;;;5012926;28;20448;-47
2023/05/27 09:32:28;;;;;;;9.67;4.73;;;;;;;;;;5012609;28;20497;-48
2023/05/27 09:34:55;;;;;;;10.23;4.70;;;;;;;;;;5012751;28;20425;-48
2023/05/27 09:37:24;;;;;;;12.53;5.30;;;;;;;;;;5013256;28;20404;-48
2023/05/27 09:39:51;;;;;;;22.47;5.57;;;;;;;;;;5015181;28;20456;-47
2023/05/27 09:42:19;;;;;;;13.37;5.47;;;;;;;;;;5012412;28;20418;-49
2023/05/27 09:44:48;;;;;;;9.37;4.90;;;;;;;;;;5010803;28;20485;-47
2023/05/27 09:47:14;;;;;;;8.80;4.60;;;;;;;;;;5012805;28;20424;-47
2023/05/27 09:49:41;;;;;;;17.27;5.40;;;;;;;;;;5012657;28;20414;-47
2023/05/27 09:52:07;;;;;;;9.17;4.57;;;;;;;;;;5012494;28;20467;-47
2023/05/27 09:54:35;;;;;;;13.57;5.07;;;;;;;;;;5014213;28;20447;-47
2023/05/27 09:57:01;;;;;;;10.17;4.40;;;;;;;;;;5013364;28;20410;-48
2023/05/27 09:59:27;;;;;;;9.53;4.47;;;;;;;;;;5012777;28;20893;-47
2023/05/27 10:01:54;;;;;;;11.37;4.10;;;;;;;;;;5011273;28;20463;-48
2023/05/27 10:04:20;;;;;;;12.13;4.37;;;;;;;;;;5011898;28;20450;-47
2023/05/27 10:06:48;;;;;;;9.33;4.10;;;;;;;;;;5012958;28;20785;-46
2023/05/27 10:09:16;;;;;;;10.13;4.40;;;;;;;;;;5012537;28;20452;-47
2023/05/27 10:11:42;;;;;;;9.43;4.17;;;;;;;;;;5012476;28;20485;-49
2023/05/27 10:14:08;;;;;;;10.33;4.70;;;;;;;;;;5008791;28;21100;-46
2023/05/27 10:16:35;;;;;;;10.93;4.20;;;;;;;;;;5007754;28;20789;-47
2023/05/27 10:19:01;;;;;;;10.50;4.10;;;;;;;;;;5012413;28;20418;-46
2023/05/27 10:21:28;;;;;;;11.87;4.27;;;;;;;;;;5010872;28;20430;-46
2023/05/27 10:23:57;;;;;;;9.63;4.07;;;;;;;;;;5011832;28;21031;-47
2023/05/27 10:26:42;;;;;;;12.87;4.20;;;;;;;;;;5013085;28;21161;-48
2023/05/27 10:29:17;;;;;;;10.40;3.97;;;;;;;;;;5012926;28;20407;-46
2023/05/27 10:31:47;;;;;;;8.20;4.00;;;;;;;;;;5012335;28;20465;-48
2023/05/27 10:34:13;;;;;;;13.00;3.80;;;;;;;;;;5018417;28;20441;-46
2023/05/27 10:36:40;;;;;;;9.70;6.13;;;;;;;;;;5019079;28;20497;-45
2023/05/27 10:39:07;;;;;;;8.40;4.43;;;;;;;;;;5017336;28;20494;-45
2023/05/27 10:41:44;;;;;;;12.90;4.70;;;;;;;;;;5021164;28;20410;-45
2023/05/27 10:44:11;;;;;;;14.17;3.90;;;;;;;;;;5011562;28;20435;-47
2023/05/27 10:46:41;;;;;;;14.83;4.93;;;;;;;;;;5009525;28;20546;-46
2023/05/27 10:49:14;;;;;;;9.33;4.20;;;;;;;;;;4992823;28;20415;-46
2023/05/27 10:51:42;;;;;;;8.00;4.07;;;;;;;;;;5011981;28;20540;-46
2023/05/27 10:54:08;;;;;;;12.37;4.60;;;;;;;;;;5011308;28;20434;-47
2023/05/27 10:56:34;;;;;;;8.70;4.60;;;;;;;;;;5011879;28;20787;-45
2023/05/27 10:59:05;;;;;;;10.30;5.03;;;;;;;;;;5011743;28;20407;-46
2023/05/27 11:01:33;;;;;;;8.23;4.70;;;;;;;;;;5011874;28;20461;-45
2023/05/27 11:03:59;;;;;;;8.80;4.70;;;;;;;;;;5011379;28;20473;-45
2023/05/27 11:06:25;;;;;;;6.30;4.20;;;;;;;;;;5011278;28;20399;-46
2023/05/27 11:08:51;;;;;;;7.07;4.30;;;;;;;;;;5012278;28;20764;-47
2023/05/27 11:11:17;;;;;;;7.37;4.13;;;;;;;;;;5015396;28;20403;-45
2023/05/27 11:13:43;;;;;;;7.70;4.77;;;;;;;;;;5015216;28;20419;-46
2023/05/27 11:16:10;;;;;;;8.40;4.67;;;;;;;;;;5014524;28;20461;-46
2023/05/27 11:18:46;;;;;;;10.30;5.07;;;;;;;;;;5014441;28;20411;-47
2023/05/27 11:21:13;;;;;;;12.60;4.27;;;;;;;;;;5007697;28;20414;-47
2023/05/27 11:23:43;;;;;;;8.60;4.20;;;;;;;;;;5015090;28;20426;-45
2023/05/27 11:26:19;;;;;;;7.23;4.40;;;;;;;;;;5015415;28;20414;-45
2023/05/27 11:28:46;;;;;;;9.93;4.47;;;;;;;;;;5015350;28;20493;-46
2023/05/27 11:31:12;;;;;;;15.13;4.53;;;;;;;;;;5014957;28;20410;-45
2023/05/27 11:33:41;;;;;;;8.10;4.00;;;;;;;;;;5014952;28;20897;-46
2023/05/27 11:36:08;;;;;;;10.93;4.00;;;;;;;;;;5014872;28;20399;-46
2023/05/27 11:38:47;;;;;;;6.50;4.10;;;;;;;;;;5018800;28;20423;-46
2023/05/27 11:41:13;;;;;;;7.70;4.87;;;;;;;;;;5008827;28;20759;-47
2023/05/27 11:43:49;;;;;;;8.23;4.50;;;;;;;;;;5013478;28;20433;-45
2023/05/27 11:46:15;;;;;;;9.43;3.97;;;;;;;;;;5007576;28;20415;-46
2023/05/27 11:48:41;;;;;;;10.00;3.60;;;;;;;;;;5013934;28;20415;-46
2023/05/27 11:51:07;;;;;;;10.03;5.07;;;;;;;;;;5013721;28;20426;-45
2023/05/27 11:53:34;;;;;;;11.03;4.90;;;;;;;;;;5014711;28;20538;-46
2023/05/27 11:56:00;;;;;;;14.97;4.53;;;;;;;;;;5015021;28;20414;-47
2023/05/27 11:58:26;;;;;;;7.43;3.73;;;;;;;;;;5014979;28;20407;-47
2023/05/27 12:00:52;;;;;;;6.53;4.00;;;;;;;;;;5014686;28;20417;-46
2023/05/27 12:03:18;;;;;;;5.80;3.93;;;;;;;;;;5014685;28;20196;-45
2023/05/27 12:05:44;;;;;;;10.07;4.70;;;;;;;;;;5015034;28;20748;-46
2023/05/27 12:08:10;;;;;;;7.50;3.73;;;;;;;;;;5014791;28;20629;-46
2023/05/27 12:10:36;;;;;;;9.30;4.80;;;;;;;;;;5014606;28;20867;-46
2023/05/27 12:13:05;;;;;;;10.00;4.00;;;;;;;;;;5014480;28;20572;-45
2023/05/27 12:15:32;;;;;;;8.77;3.90;;;;;;;;;;5014801;28;20411;-46
2023/05/27 12:17:58;;;;;;;8.67;4.03;;;;;;;;;;5014068;28;20494;-48
2023/05/27 12:20:27;;;;;;;9.93;3.90;;;;;;;;;;5013090;28;20419;-47
2023/05/27 12:22:53;;;;;;;8.43;4.57;;;;;;;;;;5013268;28;20455;-46
2023/05/27 12:25:19;;;;;;;7.97;4.67;;;;;;;;;;5014440;28;20426;-46
2023/05/27 12:27:45;;;;;;;9.83;3.83;;;;;;;;;;5014234;28;20426;-46
2023/05/27 12:30:12;;;;;;;8.37;3.70;;;;;;;;;;5014164;28;20407;-46
2023/05/27 12:32:38;;;;;;;8.03;3.87;;;;;;;;;;5013962;28;20695;-45
2023/05/27 12:35:04;;;;;;;6.73;3.83;;;;;;;;;;5014158;28;20418;-46
2023/05/27 12:37:30;;;;;;;9.20;4.17;;;;;;;;;;5015662;28;20409;-45
2023/05/27 12:39:56;;;;;;;7.40;4.17;;;;;;;;;;5016249;28;20415;-46
2023/05/27 12:42:22;;;;;;;9.00;4.87;;;;;;;;;;5014007;28;20422;-46
2023/05/27 12:44:48;;;;;;;9.70;3.70;;;;;;;;;;5014055;28;20184;-47
2023/05/27 12:47:15;;;;;;;6.80;3.83;;;;;;;;;;5014400;28;20958;-46
2023/05/27 12:49:42;;;;;;;12.70;4.10;;;;;;;;;;5012815;28;20511;-44
2023/05/27 12:52:08;;;;;;;5.70;3.20;;;;;;;;;;5012915;28;21081;-46
2023/05/27 12:54:34;;;;;;;9.13;4.37;;;;;;;;;;5013486;28;20510;-45
2023/05/27 12:57:04;;;;;;;6.43;3.43;;;;;;;;;;5013586;28;20180;-45
2023/05/27 12:59:31;;;;;;;6.10;3.30;;;;;;;;;;5013464;28;20446;-44
2023/05/27 13:01:57;;;;;;;6.73;3.43;;;;;;;;;;5013297;28;20915;-45
2023/05/27 13:04:23;;;;;;;6.60;3.87;;;;;;;;;;5013170;28;20435;-45
2023/05/27 13:06:49;;;;;;;7.90;4.07;;;;;;;;;;5013027;28;20490;-44
2023/05/27 13:09:15;;;;;;;9.10;4.60;;;;;;;;;;5013289;28;20416;-44
2023/05/27 13:11:41;;;;;;;8.60;3.50;;;;;;;;;;5012950;28;20188;-45
2023/05/27 13:14:08;;;;;;;9.47;4.07;;;;;;;;;;5010976;28;20453;-45
2023/05/27 13:16:34;;;;;;;7.27;4.27;;;;;;;;;;5013003;28;20215;-45
2023/05/27 13:19:00;;;;;;;5.90;3.70;;;;;;;;;;5006089;28;20521;-44
2023/05/27 13:21:26;;;;;;;6.60;3.40;;;;;;;;;;5012920;28;20407;-44
2023/05/27 13:23:53;;;;;;;7.37;3.70;;;;;;;;;;5010247;28;20443;-45
2023/05/27 13:26:18;;;;;;;8.00;3.70;;;;;;;;;;5012604;28;20854;-45
2023/05/27 13:28:45;;;;;;;6.03;3.27;;;;;;;;;;5013217;28;20487;-44
2023/05/27 13:31:10;;;;;;;7.47;3.80;;;;;;;;;;5012476;28;20498;-44
2023/05/27 13:33:37;;;;;;;7.20;4.00;;;;;;;;;;5010039;28;20530;-44
2023/05/27 13:36:03;;;;;;;5.97;3.30;;;;;;;;;;5008785;28;20443;-44
2023/05/27 13:38:29;;;;;;;5.23;3.17;;;;;;;;;;5022640;28;20831;-45
2023/05/27 13:40:55;;;;;;;8.70;3.40;;;;;;;;;;5025206;28;20446;-45
2023/05/27 13:43:21;;;;;;;7.60;4.00;;;;;;;;;;5007796;28;20439;-45
2023/05/27 13:45:47;;;;;;;7.80;3.80;;;;;;;;;;5004989;28;20822;-44
2023/05/27 13:48:14;;;;;;;5.90;3.63;;;;;;;;;;5012463;28;20410;-45
2023/05/27 13:50:40;;;;;;;7.10;3.60;;;;;;;;;;5012536;28;20172;-44
2023/05/27 13:53:06;;;;;;;7.43;4.80;;;;;;;;;;5012228;28;20471;-44
2023/05/27 13:55:32;;;;;;;7.43;3.70;;;;;;;;;;5012407;28;20311;-44
2023/05/27 13:57:58;;;;;;;6.97;4.07;;;;;;;;;;5011564;28;20242;-44
2023/05/27 14:00:24;;;;;;;5.93;3.00;;;;;;;;;;5011462;28;20180;-44
2023/05/27 14:02:50;;;;;;;12.13;4.60;;;;;;;;;;5012477;28;20227;-44
2023/05/27 14:05:16;;;;;;;9.57;3.93;;;;;;;;;;5012658;28;20457;-45
2023/05/27 14:07:43;;;;;;;7.43;4.07;;;;;;;;;;5012809;28;20890;-45
2023/05/27 14:10:10;;;;;;;11.53;4.13;;;;;;;;;;5012220;28;20964;-44
2023/05/27 14:12:36;;;;;;;8.63;4.73;;;;;;;;;;5012246;28;20466;-44
2023/05/27 14:15:02;;;;;;;7.03;3.70;;;;;;;;;;5010146;28;20423;-44
2023/05/27 14:17:28;;;;;;;7.20;3.70;;;;;;;;;;5012247;28;20499;-44
2023/05/27 14:19:54;;;;;;;5.40;3.70;;;;;;;;;;5012072;28;20978;-44
2023/05/27 14:22:22;;;;;;;7.20;4.00;;;;;;;;;;5012254;28;20547;-44
2023/05/27 14:24:48;;;;;;;8.10;4.57;;;;;;;;;;5012565;28;20164;-45
2023/05/27 14:27:14;;;;;;;8.30;3.87;;;;;;;;;;5012579;28;20414;-44
2023/05/27 14:29:40;;;;;;;7.83;3.60;;;;;;;;;;5012501;28;20815;-44
2023/05/27 14:32:06;;;;;;;6.07;3.70;;;;;;;;;;5012340;28;20966;-44